createdAt,value
2023-04-29T00:02:14.800Z,12.68
2023-04-29T00:04:42.444Z,12.64
2023-04-29T00:07:09.977Z,12.60
2023-04-29T00:09:38.679Z,12.56
2023-04-29T00:12:06.078Z,12.69
2023-04-29T00:14:33.487Z,12.65
2023-04-29T00:17:00.884Z,12.48
2023-04-29T00:19:29.370Z,12.43
2023-04-29T00:21:56.851Z,12.52
2023-04-29T00:24:24.254Z,12.50
2023-04-29T00:26:51.807Z,12.43
2023-04-29T00:29:19.413Z,12.45
2023-04-29T00:31:47.078Z,12.21
2023-04-29T00:34:14.442Z,12.23
2023-04-29T00:36:41.828Z,12.24
2023-04-29T00:39:09.166Z,12.20
2023-04-29T00:41:37.075Z,12.18
2023-04-29T00:44:04.586Z,12.13
2023-04-29T00:46:32.164Z,12.10
2023-04-29T00:49:00.402Z,12.00
2023-04-29T00:51:28.274Z,11.72
2023-04-29T00:53:55.852Z,11.52
2023-04-29T00:56:23.334Z,11.49
2023-04-29T00:58:51.852Z,11.32
2023-04-29T01:01:20.304Z,11.38
2023-04-29T01:07:42.495Z,11.29
2023-04-29T01:10:25.907Z,11.34
2023-04-29T01:13:17.909Z,11.23
2023-04-29T01:16:11.749Z,11.21
2023-04-29T01:18:56.834Z,11.09
2023-04-29T01:21:25.817Z,11.08
2023-04-29T01:23:56.422Z,11.20
2023-04-29T01:26:24.450Z,11.28
2023-04-29T01:29:05.357Z,11.20
2023-04-29T01:32:04.753Z,11.30
2023-04-29T01:35:13.228Z,11.47
2023-04-29T01:37:58.357Z,11.42
2023-04-29T01:40:38.635Z,11.44
2023-04-29T01:43:09.698Z,11.49
2023-04-29T01:45:42.120Z,11.08
2023-04-29T01:48:09.904Z,11.20
2023-04-29T01:50:37.238Z,11.21
2023-04-29T01:53:04.623Z,11.13
2023-04-29T01:55:31.973Z,11.20
2023-04-29T01:57:59.404Z,11.29
2023-04-29T02:00:26.795Z,11.33
2023-04-29T02:02:55.014Z,11.32
2023-04-29T02:05:22.457Z,11.22
2023-04-29T02:07:49.838Z,11.34
2023-04-29T02:10:17.274Z,11.13
2023-04-29T02:12:44.679Z,11.36
2023-04-29T02:19:17.518Z,11.73
2023-04-29T02:21:44.887Z,11.76
2023-04-29T02:24:12.316Z,11.77
2023-04-29T02:26:39.933Z,11.79
2023-04-29T02:29:07.474Z,11.76
2023-04-29T02:31:34.956Z,11.75
2023-04-29T02:34:02.411Z,11.68
2023-04-29T02:36:29.871Z,11.64
2023-04-29T02:38:57.371Z,11.45
2023-04-29T02:41:25.884Z,11.56
2023-04-29T02:43:53.303Z,11.53
2023-04-29T02:46:20.786Z,11.42
2023-04-29T02:48:48.320Z,11.32
2023-04-29T02:51:16.330Z,11.29
2023-04-29T02:53:43.916Z,11.15
2023-04-29T02:56:11.692Z,11.09
2023-04-29T02:58:39.074Z,10.96
2023-04-29T03:01:06.503Z,10.82
2023-04-29T03:03:34.052Z,10.71
2023-04-29T03:06:01.460Z,10.57
2023-04-29T03:08:28.942Z,10.55
2023-04-29T03:10:56.390Z,10.24
2023-04-29T03:13:23.789Z,10.21
2023-04-29T03:15:51.211Z,10.38
2023-04-29T03:18:18.815Z,10.53
2023-04-29T03:20:46.483Z,10.56
2023-04-29T03:23:13.834Z,10.55
2023-04-29T03:25:41.761Z,10.66
2023-04-29T03:28:09.182Z,10.51
2023-04-29T03:30:36.794Z,10.62
2023-04-29T03:33:04.315Z,10.56
2023-04-29T03:35:31.714Z,10.57
2023-04-29T03:37:59.112Z,10.51
2023-04-29T03:40:26.457Z,10.61
2023-04-29T03:42:53.901Z,10.81
2023-04-29T03:45:21.287Z,10.80
2023-04-29T03:47:48.788Z,10.70
2023-04-29T03:50:16.560Z,11.23
2023-04-29T03:52:44.333Z,11.15
2023-04-29T03:55:12.732Z,11.11
2023-04-29T03:57:42.198Z,11.28
2023-04-29T04:00:10.451Z,11.32
2023-04-29T04:02:37.968Z,11.32
2023-04-29T04:05:05.771Z,11.37
2023-04-29T04:07:33.182Z,11.39
2023-04-29T04:10:00.629Z,11.43
2023-04-29T04:12:27.987Z,11.43
2023-04-29T04:14:55.696Z,11.54
2023-04-29T04:17:23.110Z,11.45
2023-04-29T04:19:51.136Z,11.29
2023-04-29T04:22:19.120Z,11.33
2023-04-29T04:24:46.504Z,11.33
2023-04-29T04:27:13.928Z,11.29
2023-04-29T04:29:41.346Z,11.23
2023-04-29T04:32:08.872Z,11.20
2023-04-29T04:34:37.037Z,11.24
2023-04-29T04:37:04.355Z,11.31
2023-04-29T04:39:31.378Z,11.28
2023-04-29T04:41:58.858Z,11.28
2023-04-29T04:44:26.311Z,11.34
2023-04-29T04:46:53.681Z,11.31
2023-04-29T04:49:21.115Z,11.30
2023-04-29T04:51:48.462Z,11.33
2023-04-29T04:54:15.910Z,11.18
2023-04-29T04:56:43.336Z,11.30
2023-04-29T04:59:10.789Z,11.50
2023-04-29T05:01:38.349Z,11.48
2023-04-29T05:04:06.100Z,11.61
2023-04-29T05:06:33.536Z,11.77
2023-04-29T05:09:00.894Z,11.81
2023-04-29T05:11:28.254Z,12.01
2023-04-29T05:13:55.643Z,12.11
2023-04-29T05:16:23.037Z,12.17
2023-04-29T05:18:50.462Z,12.25
2023-04-29T05:21:17.946Z,12.23
2023-04-29T05:23:45.390Z,12.18
2023-04-29T05:26:12.766Z,12.22
2023-04-29T05:28:40.142Z,12.29
2023-04-29T05:31:07.515Z,12.34
2023-04-29T05:33:34.902Z,12.31
2023-04-29T05:36:02.445Z,12.33
2023-04-29T05:38:29.870Z,12.40
2023-04-29T05:40:57.381Z,12.41
2023-04-29T05:43:25.000Z,12.48
2023-04-29T05:45:52.376Z,12.52
2023-04-29T05:48:19.829Z,12.57
2023-04-29T05:50:48.623Z,12.63
2023-04-29T05:53:16.127Z,12.70
2023-04-29T05:55:45.282Z,12.75
2023-04-29T05:58:13.366Z,12.82
2023-04-29T06:00:41.200Z,12.85
2023-04-29T06:03:08.771Z,12.94
2023-04-29T06:05:36.701Z,12.99
2023-04-29T06:08:05.860Z,13.03
2023-04-29T06:10:33.998Z,13.05
2023-04-29T06:13:01.393Z,12.98
2023-04-29T06:15:28.879Z,13.00
2023-04-29T06:17:56.625Z,12.98
2023-04-29T06:20:24.624Z,13.00
2023-04-29T06:22:52.093Z,13.09
2023-04-29T06:25:19.571Z,13.11
2023-04-29T06:27:47.157Z,13.14
2023-04-29T06:30:14.654Z,13.14
2023-04-29T06:32:42.139Z,13.31
2023-04-29T06:35:09.875Z,13.47
2023-04-29T06:37:38.175Z,13.59
2023-04-29T06:40:06.937Z,13.76
2023-04-29T06:42:34.848Z,13.90
2023-04-29T06:45:02.354Z,13.95
2023-04-29T06:47:29.482Z,14.21
2023-04-29T06:49:56.930Z,14.30
2023-04-29T06:52:24.450Z,14.41
2023-04-29T06:54:51.952Z,14.51
2023-04-29T06:57:19.509Z,14.59
2023-04-29T06:59:47.517Z,14.75
2023-04-29T07:02:16.621Z,14.34
2023-04-29T07:04:44.522Z,14.30
2023-04-29T07:07:12.743Z,14.24
2023-04-29T07:09:40.268Z,14.56
2023-04-29T07:12:08.108Z,14.45
2023-04-29T07:14:37.756Z,14.30
2023-04-29T07:17:06.552Z,14.31
2023-04-29T07:19:35.029Z,14.24
2023-04-29T07:22:04.795Z,14.35
2023-04-29T07:24:33.062Z,14.20
2023-04-29T07:29:42.841Z,13.93
2023-04-29T07:32:10.181Z,13.90
2023-04-29T07:34:38.231Z,13.74
2023-04-29T07:37:05.594Z,13.65
2023-04-29T07:39:32.964Z,13.53
2023-04-29T07:42:00.460Z,13.63
2023-04-29T07:44:27.867Z,13.53
2023-04-29T07:46:55.626Z,13.39
2023-04-29T07:49:23.230Z,13.38
2023-04-29T07:51:50.606Z,13.39
2023-04-29T07:54:19.601Z,13.39
2023-04-29T07:56:47.218Z,13.34
2023-04-29T07:59:14.850Z,13.08
2023-04-29T08:01:42.700Z,13.11
2023-04-29T08:04:10.539Z,13.08
2023-04-29T08:06:38.369Z,13.15
2023-04-29T08:09:05.838Z,13.12
2023-04-29T08:16:22.479Z,13.02
2023-04-29T08:18:51.217Z,12.96
2023-04-29T08:21:19.702Z,13.01
2023-04-29T08:23:47.435Z,13.04
2023-04-29T08:26:15.482Z,13.17
2023-04-29T08:28:42.899Z,13.13
2023-04-29T08:31:20.186Z,13.21
2023-04-29T08:33:47.969Z,13.45
2023-04-29T08:36:15.583Z,13.65
2023-04-29T08:38:44.354Z,13.61
2023-04-29T08:41:12.013Z,13.67
2023-04-29T08:43:42.558Z,13.71
2023-04-29T08:46:11.050Z,13.61
2023-04-29T08:48:42.562Z,13.56
2023-04-29T08:51:13.957Z,13.37
2023-04-29T08:53:41.309Z,13.49
2023-04-29T08:56:20.723Z,13.29
2023-04-29T08:58:54.784Z,13.38
2023-04-29T09:01:23.181Z,13.25
2023-04-29T09:03:58.666Z,13.30
2023-04-29T09:06:26.869Z,13.34
2023-04-29T09:08:54.383Z,13.13
2023-04-29T09:11:22.643Z,13.22
2023-04-29T09:13:50.000Z,13.05
2023-04-29T09:16:17.387Z,13.16
2023-04-29T09:18:50.648Z,13.29
2023-04-29T09:21:21.741Z,13.30
2023-04-29T09:23:53.836Z,13.24
2023-04-29T09:26:22.474Z,13.22
2023-04-29T09:29:14.373Z,13.37
2023-04-29T09:31:42.569Z,13.58
2023-04-29T09:34:12.869Z,13.72
2023-04-29T09:36:51.249Z,13.60
2023-04-29T09:39:20.433Z,13.81
2023-04-29T09:41:53.618Z,14.19
2023-04-29T09:44:33.620Z,14.18
2023-04-29T09:47:07.583Z,14.11
2023-04-29T09:49:38.364Z,14.28
2023-04-29T09:52:11.682Z,14.53
2023-04-29T09:54:41.991Z,14.32
2023-04-29T09:57:11.125Z,14.31
2023-04-29T09:59:40.649Z,14.77
2023-04-29T10:02:15.728Z,14.54
2023-04-29T10:04:46.855Z,14.62
2023-04-29T10:07:16.994Z,14.66
2023-04-29T10:09:49.674Z,14.64
2023-04-29T10:12:19.082Z,14.66
2023-04-29T10:15:04.149Z,14.53
2023-04-29T10:17:45.296Z,14.58
2023-04-29T10:20:16.763Z,14.68
2023-04-29T10:22:48.828Z,14.33
2023-04-29T10:25:19.198Z,14.33
2023-04-29T10:27:47.619Z,14.53
2023-04-29T10:30:16.773Z,14.54
2023-04-29T10:32:50.886Z,14.39
2023-04-29T10:35:22.629Z,14.43
2023-04-29T10:37:50.435Z,14.37
2023-04-29T10:40:23.279Z,14.31
2023-04-29T10:42:54.885Z,14.27
2023-04-29T10:45:30.128Z,14.36
2023-04-29T10:48:06.348Z,14.69
2023-04-29T10:50:54.237Z,14.78
2023-04-29T10:53:22.107Z,15.07
2023-04-29T10:56:03.625Z,15.17
2023-04-29T10:58:41.956Z,14.92
2023-04-29T11:01:13.270Z,14.97
2023-04-29T11:03:55.960Z,15.18
2023-04-29T11:06:42.273Z,15.35
2023-04-29T11:09:30.795Z,15.31
2023-04-29T11:12:09.592Z,15.63
2023-04-29T11:14:43.172Z,15.09
2023-04-29T11:17:15.500Z,15.32
2023-04-29T11:19:46.412Z,15.55
2023-04-29T11:22:34.141Z,15.33
2023-04-29T11:25:07.412Z,15.78
2023-04-29T11:27:40.499Z,15.43
2023-04-29T11:30:08.818Z,15.77
2023-04-29T11:32:40.783Z,15.86
2023-04-29T11:35:19.761Z,15.74
2023-04-29T11:37:47.642Z,16.04
2023-04-29T11:40:15.605Z,15.36
2023-04-29T11:42:50.235Z,15.70
2023-04-29T11:45:20.535Z,15.68
2023-04-29T11:47:49.051Z,15.58
2023-04-29T11:50:19.669Z,15.64
2023-04-29T11:52:48.688Z,15.40
2023-04-29T11:55:16.205Z,15.09
2023-04-29T11:57:43.806Z,15.21
2023-04-29T12:00:12.970Z,14.84
2023-04-29T12:02:43.829Z,15.20
2023-04-29T12:05:13.278Z,15.37
2023-04-29T12:07:41.244Z,15.32
2023-04-29T12:10:11.141Z,15.02
2023-04-29T12:12:44.201Z,15.04
2023-04-29T12:15:12.835Z,14.87
2023-04-29T12:17:40.585Z,14.86
2023-04-29T12:20:11.998Z,15.12
2023-04-29T12:22:39.843Z,14.83
2023-04-29T12:25:08.348Z,15.20
2023-04-29T12:27:36.942Z,15.03
2023-04-29T12:30:09.730Z,14.97
2023-04-29T12:32:37.632Z,14.76
2023-04-29T12:35:05.490Z,14.91
2023-04-29T12:37:33.395Z,15.10
2023-04-29T12:40:00.752Z,14.99
2023-04-29T12:42:34.400Z,14.80
2023-04-29T12:45:01.948Z,14.86
2023-04-29T12:47:37.380Z,14.86
2023-04-29T12:50:07.284Z,14.89
2023-04-29T12:52:36.528Z,14.94
2023-04-29T12:55:05.020Z,14.88
2023-04-29T12:57:32.609Z,15.13
2023-04-29T13:00:00.340Z,15.07
2023-04-29T13:02:28.610Z,15.17
2023-04-29T13:04:56.455Z,15.17
2023-04-29T13:07:23.920Z,15.07
2023-04-29T13:09:51.335Z,14.93
2023-04-29T13:15:01.012Z,15.18
2023-04-29T13:17:28.735Z,15.11
2023-04-29T13:19:56.776Z,14.97
2023-04-29T13:22:24.283Z,15.21
2023-04-29T13:24:52.443Z,15.02
2023-04-29T13:27:19.885Z,14.89
2023-04-29T13:29:47.309Z,14.82
2023-04-29T13:32:18.116Z,14.71
2023-04-29T13:34:45.927Z,14.83
2023-04-29T13:37:13.395Z,14.91
2023-04-29T13:39:41.655Z,14.95
2023-04-29T13:44:51.595Z,14.65
2023-04-29T13:47:25.044Z,14.94
2023-04-29T13:50:22.272Z,15.14
2023-04-29T13:53:23.532Z,15.10
2023-04-29T13:56:24.769Z,15.05
2023-04-29T13:58:56.175Z,15.09
2023-04-29T14:03:35.789Z,15.44
2023-04-29T14:06:03.811Z,14.91
2023-04-29T14:08:31.256Z,15.13
2023-04-29T14:10:58.629Z,15.29
2023-04-29T14:13:26.153Z,15.27
2023-04-29T14:15:54.663Z,15.38
2023-04-29T14:18:22.104Z,15.20
2023-04-29T14:20:49.858Z,15.21
2023-04-29T14:23:17.161Z,15.41
2023-04-29T14:25:44.667Z,15.43
2023-04-29T14:28:12.716Z,15.34
2023-04-29T14:30:41.070Z,15.43
2023-04-29T14:33:08.403Z,15.45
2023-04-29T14:35:35.793Z,15.55
2023-04-29T14:38:03.283Z,15.41
2023-04-29T14:40:30.664Z,15.67
2023-04-29T14:42:58.150Z,15.87
2023-04-29T14:45:25.649Z,15.78
2023-04-29T14:47:53.037Z,15.73
2023-04-29T14:50:20.647Z,15.72
2023-04-29T14:52:48.037Z,15.85
2023-04-29T14:55:15.611Z,16.16
2023-04-29T14:57:42.909Z,16.22
2023-04-29T15:00:12.314Z,16.24
2023-04-29T15:02:39.776Z,16.11
2023-04-29T15:05:07.435Z,17.09
2023-04-29T15:07:34.471Z,17.68
2023-04-29T15:10:02.232Z,17.08
2023-04-29T15:12:29.719Z,16.75
2023-04-29T15:14:57.073Z,16.75
2023-04-29T15:17:25.132Z,16.48
2023-04-29T15:19:52.543Z,16.54
2023-04-29T15:22:19.495Z,16.67
2023-04-29T15:27:16.285Z,16.39
2023-04-29T15:29:43.697Z,16.39
2023-04-29T15:32:11.112Z,16.06
2023-04-29T15:34:38.616Z,16.27
2023-04-29T15:37:05.708Z,16.15
2023-04-29T15:39:32.672Z,16.44
2023-04-29T15:42:00.238Z,16.22
2023-04-29T15:44:27.592Z,16.41
2023-04-29T15:46:55.517Z,15.93
2023-04-29T15:49:24.419Z,15.92
2023-04-29T15:51:51.830Z,16.06
2023-04-29T15:54:19.199Z,16.21
2023-04-29T15:56:46.686Z,15.87
2023-04-29T15:59:17.569Z,15.94
2023-04-29T16:01:45.347Z,15.96
2023-04-29T16:04:44.523Z,15.97
2023-04-29T16:07:12.333Z,15.81
2023-04-29T16:09:39.751Z,15.80
2023-04-29T16:12:08.121Z,15.71
2023-04-29T16:14:35.671Z,15.56
2023-04-29T16:17:05.583Z,15.46
2023-04-29T16:19:35.971Z,15.34
2023-04-29T16:22:04.006Z,15.46
2023-04-29T16:24:31.500Z,15.32
2023-04-29T16:26:59.113Z,15.43
2023-04-29T16:29:26.850Z,15.26
2023-04-29T16:31:54.432Z,15.33
2023-04-29T16:34:21.957Z,15.20
2023-04-29T16:36:49.377Z,15.29
2023-04-29T16:39:17.005Z,15.30
2023-04-29T16:41:44.463Z,15.10
2023-04-29T16:44:12.779Z,15.17
2023-04-29T16:46:40.341Z,15.31
2023-04-29T16:49:07.577Z,15.20
2023-04-29T16:51:35.193Z,15.19
2023-04-29T16:54:02.810Z,15.14
2023-04-29T16:56:30.196Z,14.89
2023-04-29T16:58:57.806Z,14.98
2023-04-29T17:01:25.220Z,15.17
2023-04-29T17:03:52.707Z,15.00
2023-04-29T17:06:20.149Z,15.12
2023-04-29T17:08:50.020Z,15.10
2023-04-29T17:11:18.750Z,15.03
2023-04-29T17:13:46.374Z,15.05
2023-04-29T17:16:16.921Z,14.92
2023-04-29T17:18:44.568Z,14.84
2023-04-29T17:21:12.044Z,14.85
2023-04-29T17:23:39.956Z,14.89
2023-04-29T17:26:07.733Z,14.88
2023-04-29T17:28:35.195Z,14.76
2023-04-29T17:31:02.614Z,14.69
2023-04-29T17:33:33.971Z,14.56
2023-04-29T17:36:06.301Z,14.63
2023-04-29T17:38:33.872Z,14.51
2023-04-29T17:41:02.011Z,14.46
2023-04-29T17:43:32.469Z,14.37
2023-04-29T17:46:00.041Z,14.30
2023-04-29T17:48:27.608Z,14.37
2023-04-29T17:50:55.112Z,14.43
2023-04-29T17:53:22.503Z,14.29
2023-04-29T17:55:49.442Z,14.18
2023-04-29T17:58:16.857Z,14.05
2023-04-29T18:00:45.374Z,14.11
2023-04-29T18:03:12.948Z,14.19
2023-04-29T18:05:40.763Z,13.95
2023-04-29T18:08:08.246Z,13.94
2023-04-29T18:10:35.627Z,13.83
2023-04-29T18:13:03.561Z,13.71
2023-04-29T18:15:30.992Z,13.75
2023-04-29T18:17:58.879Z,13.63
2023-04-29T18:20:26.269Z,13.62
2023-04-29T18:22:53.663Z,13.64
2023-04-29T18:25:21.239Z,13.63
2023-04-29T18:27:48.722Z,13.47
2023-04-29T18:30:16.674Z,13.44
2023-04-29T18:32:44.286Z,13.40
2023-04-29T18:35:11.388Z,13.48
2023-04-29T18:37:38.793Z,13.37
2023-04-29T18:40:09.546Z,13.42
2023-04-29T18:42:36.542Z,13.31
2023-04-29T18:45:04.084Z,13.27
2023-04-29T18:47:31.137Z,13.27
2023-04-29T18:49:58.576Z,13.21
2023-04-29T18:52:26.260Z,13.18
2023-04-29T18:54:53.649Z,13.18
2023-04-29T18:57:20.695Z,13.12
2023-04-29T18:59:48.047Z,13.11
2023-04-29T19:02:15.011Z,13.00
2023-04-29T19:04:42.372Z,13.05
2023-04-29T19:07:09.272Z,13.11
2023-04-29T19:09:36.459Z,13.02
2023-04-29T19:12:04.655Z,13.09
2023-04-29T19:14:34.322Z,13.10
2023-04-29T19:17:01.560Z,13.01
2023-04-29T19:19:28.553Z,13.00
2023-04-29T19:21:57.319Z,12.98
2023-04-29T19:24:24.697Z,12.92
2023-04-29T19:26:52.112Z,12.91
2023-04-29T19:29:19.100Z,12.95
2023-04-29T19:31:46.542Z,12.90
2023-04-29T19:34:13.940Z,12.83
2023-04-29T19:36:42.819Z,12.86
2023-04-29T19:39:11.165Z,12.90
2023-04-29T19:41:38.248Z,12.83
2023-04-29T19:44:05.575Z,12.88
2023-04-29T19:46:33.504Z,12.82
2023-04-29T19:49:00.572Z,12.79
2023-04-29T19:51:28.166Z,12.76
2023-04-29T19:54:01.711Z,12.77
2023-04-29T19:56:29.118Z,12.71
2023-04-29T19:58:56.974Z,12.69
2023-04-29T20:01:24.378Z,12.67
2023-04-29T20:03:51.770Z,12.66
2023-04-29T20:06:19.943Z,12.68
2023-04-29T20:08:47.597Z,12.63
2023-04-29T20:11:15.076Z,12.64
2023-04-29T20:13:42.466Z,12.67
2023-04-29T20:16:11.183Z,12.55
2023-04-29T20:18:40.862Z,12.55
2023-04-29T20:21:08.443Z,12.56
2023-04-29T20:23:35.869Z,12.56
2023-04-29T20:26:03.966Z,12.62
2023-04-29T20:28:31.404Z,12.64
2023-04-29T20:30:58.753Z,12.62
2023-04-29T20:33:26.302Z,12.64
2023-04-29T20:35:53.406Z,12.56
2023-04-29T20:38:22.426Z,12.50
2023-04-29T20:40:54.388Z,12.53
2023-04-29T20:43:21.466Z,12.42
2023-04-29T20:45:48.817Z,12.47
2023-04-29T20:48:16.333Z,12.45
2023-04-29T20:50:43.816Z,12.45
2023-04-29T20:53:11.269Z,12.54
2023-04-29T20:55:38.721Z,12.52
2023-04-29T20:58:06.098Z,12.43
2023-04-29T21:00:33.073Z,12.40
2023-04-29T21:03:01.480Z,12.40
2023-04-29T21:05:28.504Z,12.44
2023-04-29T21:07:55.599Z,12.38
2023-04-29T21:10:22.854Z,12.38
2023-04-29T21:12:49.816Z,12.34
2023-04-29T21:15:17.587Z,12.37
2023-04-29T21:17:44.964Z,12.34
2023-04-29T21:20:12.491Z,12.33
2023-04-29T21:22:39.893Z,12.29
2023-04-29T21:25:07.564Z,12.34
2023-04-29T21:27:35.999Z,12.31
2023-04-29T21:30:04.976Z,12.35
2023-04-29T21:32:33.807Z,12.31
2023-04-29T21:35:01.615Z,12.26
2023-04-29T21:37:31.946Z,12.20
2023-04-29T21:40:00.354Z,12.16
2023-04-29T21:42:28.078Z,12.23
2023-04-29T21:44:57.765Z,12.18
2023-04-29T21:47:25.566Z,12.19
2023-04-29T21:49:54.379Z,12.17
2023-04-29T21:52:21.985Z,12.12
2023-04-29T21:54:49.325Z,12.13
2023-04-29T21:57:16.306Z,12.11
2023-04-29T21:59:43.378Z,12.10
2023-04-29T22:02:15.106Z,12.07
2023-04-29T22:04:42.654Z,12.06
2023-04-29T22:07:10.122Z,12.04
2023-04-29T22:09:37.566Z,12.07
2023-04-29T22:12:05.105Z,12.00
2023-04-29T22:14:32.093Z,12.03
2023-04-29T22:16:59.445Z,11.98
2023-04-29T22:19:30.176Z,11.98
2023-04-29T22:21:57.587Z,12.01
2023-04-29T22:24:24.958Z,11.99
2023-04-29T22:26:52.341Z,11.99
2023-04-29T22:29:20.903Z,11.91
2023-04-29T22:31:48.296Z,11.97
2023-04-29T22:34:15.845Z,11.97
2023-04-29T22:36:43.234Z,11.95
2023-04-29T22:39:10.812Z,11.87
2023-04-29T22:41:38.180Z,11.82
2023-04-29T22:44:05.185Z,11.82
2023-04-29T22:46:33.568Z,11.86
2023-04-29T22:49:00.764Z,11.89
2023-04-29T22:51:27.769Z,11.79
2023-04-29T22:53:55.146Z,11.85
2023-04-29T22:56:22.753Z,11.89
2023-04-29T22:58:50.370Z,11.89
2023-04-29T23:01:17.345Z,11.87
2023-04-29T23:03:44.447Z,11.87
2023-04-29T23:06:11.962Z,11.86
2023-04-29T23:08:39.001Z,11.91
2023-04-29T23:11:06.538Z,11.84
2023-04-29T23:13:33.892Z,11.91
2023-04-29T23:16:01.616Z,11.91
2023-04-29T23:18:28.614Z,11.87
2023-04-29T23:20:56.875Z,11.88
2023-04-29T23:23:24.473Z,11.82
2023-04-29T23:25:51.861Z,11.81
2023-04-29T23:28:18.961Z,11.85
2023-04-29T23:30:49.086Z,11.83
2023-04-29T23:33:16.740Z,11.80
2023-04-29T23:35:53.699Z,11.72
2023-04-29T23:38:21.189Z,11.69
2023-04-29T23:40:48.662Z,11.72
2023-04-29T23:43:16.141Z,11.73
2023-04-29T23:45:46.292Z,11.76
2023-04-29T23:48:15.729Z,11.67
2023-04-29T23:50:42.800Z,11.63
2023-04-29T23:53:10.215Z,11.59
2023-04-29T23:55:37.180Z,11.62
2023-04-29T23:58:04.546Z,11.62
